Time;durP1;ratioP1;P1;durP2;ratioP2;P2;SDS_P1;SDS_P2;PMS_P1;PMS_P2;Temp;Humidity;BMP_temperature;BMP_pressure;BME280_temperature;BME280_humidity;BME280_pressure;Samples;Min_cycle;Max_cycle;Signal;HPM_P1;HPM_P2
2023/05/12 00:02:08;;;;;;;12.23;7.32;;;11.90;99.90;;;;;;5094602;28;20038;-72
2023/05/12 00:04:35;;;;;;;12.30;6.65;;;11.90;99.90;;;;;;5094258;28;20499;-71
2023/05/12 00:07:01;;;;;;;13.98;7.13;;;11.90;99.90;;;;;;5093640;28;20044;-72
2023/05/12 00:09:26;;;;;;;12.87;7.33;;;11.90;99.90;;;;;;5093677;28;20546;-71
2023/05/12 00:11:52;;;;;;;13.23;7.90;;;11.90;99.90;;;;;;5093597;28;20468;-71
2023/05/12 00:14:18;;;;;;;17.17;8.27;;;11.90;99.90;;;;;;5093945;28;20062;-72
2023/05/12 00:16:46;;;;;;;15.73;8.02;;;11.90;99.90;;;;;;5093588;28;20072;-72
2023/05/12 00:19:11;;;;;;;16.60;7.93;;;11.90;99.90;;;;;;5092373;28;20123;-72
2023/05/12 00:21:37;;;;;;;14.43;7.67;;;11.90;99.90;;;;;;5093538;28;20115;-72
2023/05/12 00:24:04;;;;;;;16.23;8.10;;;11.90;99.90;;;;;;5093458;28;20109;-72
2023/05/12 00:26:29;;;;;;;15.95;8.60;;;11.90;99.90;;;;;;5092613;28;20040;-72
2023/05/12 00:28:55;;;;;;;17.45;9.25;;;12.00;99.90;;;;;;5093437;28;20054;-72
2023/05/12 00:31:20;;;;;;;16.10;8.27;;;11.90;99.90;;;;;;5092983;28;20036;-72
2023/05/12 00:33:46;;;;;;;16.90;7.93;;;11.90;99.90;;;;;;5092192;28;20047;-72
2023/05/12 00:36:12;;;;;;;15.73;9.40;;;11.90;99.90;;;;;;5093012;28;20601;-72
2023/05/12 00:38:37;;;;;;;18.17;9.68;;;11.90;99.90;;;;;;5093200;28;20142;-72
2023/05/12 00:41:03;;;;;;;20.35;10.18;;;11.90;99.90;;;;;;5093275;28;20039;-72
2023/05/12 00:43:30;;;;;;;23.03;10.97;;;11.90;99.90;;;;;;5093578;28;20040;-72
2023/05/12 00:45:56;;;;;;;22.25;10.43;;;11.90;99.90;;;;;;5093170;28;20040;-72
2023/05/12 00:48:22;;;;;;;21.33;10.27;;;11.90;99.90;;;;;;5093359;28;20036;-72
2023/05/12 00:50:48;;;;;;;24.83;11.07;;;11.90;99.90;;;;;;5092832;28;20028;-72
2023/05/12 00:53:13;;;;;;;23.60;11.67;;;11.90;99.90;;;;;;5093022;28;20440;-72
2023/05/12 00:55:39;;;;;;;21.95;11.82;;;11.90;99.90;;;;;;5093499;28;20083;-72
2023/05/12 00:58:05;;;;;;;23.00;10.70;;;11.90;99.90;;;;;;5093029;28;20134;-72
2023/05/12 01:00:31;;;;;;;23.42;11.60;;;11.90;99.90;;;;;;5093019;28;20118;-72
2023/05/12 01:02:57;;;;;;;25.73;11.93;;;11.90;99.90;;;;;;5092801;28;20028;-72
2023/05/12 01:05:29;;;;;;;27.40;12.43;;;11.90;99.90;;;;;;5056326;28;1053203;-72
2023/05/12 01:07:55;;;;;;;25.35;11.82;;;11.90;99.90;;;;;;5093791;28;20387;-72
2023/05/12 01:10:21;;;;;;;31.42;12.93;;;11.90;99.90;;;;;;5097356;28;20123;-71
2023/05/12 01:12:47;;;;;;;27.27;13.48;;;11.90;99.90;;;;;;5097667;28;20416;-71
2023/05/12 01:15:13;;;;;;;23.33;12.02;;;11.90;99.90;;;;;;5097871;28;20035;-72
2023/05/12 01:17:43;;;;;;;40.45;13.55;;;11.90;99.90;;;;;;5097756;28;20127;-72
2023/05/12 01:20:12;;;;;;;31.15;13.55;;;11.90;99.90;;;;;;5097525;28;20114;-72
2023/05/12 01:22:38;;;;;;;29.60;13.80;;;11.90;99.90;;;;;;5108859;28;20082;-72
2023/05/12 01:25:08;;;;;;;26.65;13.80;;;11.90;99.90;;;;;;5118394;28;20039;-71
2023/05/12 01:27:35;;;;;;;26.92;13.80;;;11.90;99.90;;;;;;5118603;28;20163;-72
2023/05/12 01:30:03;;;;;;;29.10;14.63;;;12.00;99.90;;;;;;5117922;28;20051;-71
2023/05/12 01:32:29;;;;;;;31.98;13.43;;;12.20;99.90;;;;;;5117723;28;20039;-72
2023/05/12 01:34:55;;;;;;;25.63;13.33;;;12.00;99.90;;;;;;5117773;28;20431;-72
2023/05/12 01:37:20;;;;;;;34.58;13.80;;;12.00;99.90;;;;;;5117784;28;20043;-72
2023/05/12 01:39:46;;;;;;;36.22;15.25;;;11.90;99.90;;;;;;5118168;28;20038;-72
2023/05/12 01:42:12;;;;;;;32.67;14.93;;;11.90;99.90;;;;;;5117727;28;20068;-72
2023/05/12 01:44:37;;;;;;;33.47;15.00;;;12.20;99.90;;;;;;5117481;28;20051;-72
2023/05/12 01:47:03;;;;;;;34.40;14.98;;;11.90;99.90;;;;;;5117614;28;20039;-72
2023/05/12 01:49:29;;;;;;;35.58;15.10;;;12.00;99.90;;;;;;5117541;28;20051;-71
2023/05/12 01:51:54;;;;;;;32.58;14.68;;;12.00;99.90;;;;;;5117457;28;20076;-72
2023/05/12 01:54:20;;;;;;;36.55;16.27;;;12.00;99.90;;;;;;5117500;28;20036;-72
2023/05/12 01:56:46;;;;;;;33.10;14.65;;;12.00;99.90;;;;;;5117410;28;20383;-72
2023/05/12 01:59:11;;;;;;;35.85;15.73;;;12.00;99.90;;;;;;5117683;28;20036;-72
2023/05/12 02:01:37;;;;;;;35.37;15.83;;;12.00;99.90;;;;;;5117384;28;20419;-72
2023/05/12 02:04:03;;;;;;;29.50;15.10;;;12.00;99.90;;;;;;5117199;28;20040;-72
2023/05/12 02:06:30;;;;;;;44.08;16.67;;;12.00;99.90;;;;;;5117805;28;20131;-71
2023/05/12 02:08:56;;;;;;;34.15;16.35;;;12.00;99.90;;;;;;5117569;27;20397;-71
2023/05/12 02:11:22;;;;;;;36.90;16.53;;;12.00;99.90;;;;;;5116869;27;20151;-72
2023/05/12 02:13:47;;;;;;;34.95;15.95;;;12.30;99.90;;;;;;5117352;28;20158;-72
2023/05/12 02:16:13;;;;;;;31.73;14.95;;;12.10;99.90;;;;;;5116977;28;20377;-72
2023/05/12 02:18:41;;;;;;;34.97;15.57;;;12.10;99.90;;;;;;5116814;28;20124;-71
2023/05/12 02:21:07;;;;;;;32.42;15.85;;;12.10;99.90;;;;;;5116476;28;20390;-72
2023/05/12 02:23:33;;;;;;;34.97;16.00;;;12.10;99.90;;;;;;5117314;28;20042;-72
2023/05/12 02:25:58;;;;;;;36.75;15.57;;;12.10;99.90;;;;;;5116864;28;20421;-72
2023/05/12 02:28:24;;;;;;;34.42;16.05;;;12.50;99.90;;;;;;5116828;28;20471;-71
2023/05/12 02:30:51;;;;;;;43.53;17.57;;;12.20;99.90;;;;;;5116766;28;20046;-72
2023/05/12 02:33:18;;;;;;;41.10;17.77;;;12.20;99.90;;;;;;5116719;28;20039;-72
2023/05/12 02:35:44;;;;;;;;;;;12.20;99.90;;;;;;5116845;28;20475;-72
2023/05/12 02:38:10;;;;;;;37.75;18.17;;;12.20;99.90;;;;;;5116424;28;19916;-72
2023/05/12 02:40:36;;;;;;;32.95;15.88;;;12.20;99.90;;;;;;5116542;28;20031;-72
2023/05/12 02:43:02;;;;;;;37.50;15.50;;;12.20;99.90;;;;;;5116562;28;20493;-72
2023/05/12 02:45:27;;;;;;;35.83;16.40;;;12.20;99.90;;;;;;5116454;27;20043;-72
2023/05/12 02:47:53;;;;;;;36.83;17.03;;;12.20;99.90;;;;;;5116402;28;20122;-72
2023/05/12 02:50:20;;;;;;;33.67;15.67;;;12.20;99.90;;;;;;5116281;28;20104;-72
2023/05/12 02:52:46;;;;;;;35.25;17.42;;;12.20;99.90;;;;;;5116277;28;20043;-72
2023/05/12 02:55:12;;;;;;;41.07;16.97;;;12.30;99.90;;;;;;5116381;28;20040;-72
2023/05/12 02:57:37;;;;;;;40.38;18.10;;;12.50;99.90;;;;;;5116538;28;20399;-72
2023/05/12 03:00:05;;;;;;;35.33;17.38;;;12.30;99.90;;;;;;5116199;28;20438;-72
2023/05/12 03:02:34;;;;;;;35.22;17.52;;;12.30;99.90;;;;;;5116169;28;20044;-72
2023/05/12 03:05:00;;;;;;;35.67;16.42;;;12.30;99.90;;;;;;5116028;28;20104;-72
2023/05/12 03:07:26;;;;;;;31.70;16.30;;;12.30;99.90;;;;;;5116498;28;20047;-72
2023/05/12 03:09:52;;;;;;;33.97;17.20;;;12.30;99.90;;;;;;5116006;28;20036;-72
2023/05/12 03:12:18;;;;;;;36.50;16.50;;;12.30;99.90;;;;;;5115844;28;20341;-72
2023/05/12 03:14:43;;;;;;;37.70;17.20;;;12.30;99.90;;;;;;5115946;28;20047;-72
2023/05/12 03:17:09;;;;;;;37.33;17.53;;;12.30;99.90;;;;;;5115827;28;20035;-72
2023/05/12 03:19:35;;;;;;;36.13;17.42;;;12.30;99.90;;;;;;5115737;28;20051;-72
2023/05/12 03:22:02;;;;;;;34.40;16.80;;;12.50;99.90;;;;;;5116237;28;20043;-72
2023/05/12 03:24:28;;;;;;;37.40;17.13;;;12.30;99.90;;;;;;5115713;28;20104;-72
2023/05/12 03:26:54;;;;;;;30.57;14.93;;;12.30;99.90;;;;;;5114645;28;20043;-72
2023/05/12 03:29:19;;;;;;;36.20;17.75;;;12.30;99.90;;;;;;5115765;28;20046;-72
2023/05/12 03:31:45;;;;;;;37.22;17.50;;;12.60;99.90;;;;;;5114675;28;20035;-72
2023/05/12 03:34:11;;;;;;;27.98;15.15;;;12.30;99.90;;;;;;5115429;28;20406;-72
2023/05/12 03:36:36;;;;;;;32.57;17.10;;;12.30;99.90;;;;;;5115355;28;20071;-71
2023/05/12 03:39:02;;;;;;;37.42;17.52;;;12.30;99.90;;;;;;5114237;28;20056;-72
2023/05/12 03:41:28;;;;;;;35.53;17.48;;;12.40;99.90;;;;;;5115711;28;20032;-71
2023/05/12 03:43:54;;;;;;;37.58;18.05;;;12.30;99.90;;;;;;5115645;28;20035;-72
2023/05/12 03:46:19;;;;;;;37.05;19.33;;;12.40;99.90;;;;;;5114173;28;20039;-72
2023/05/12 03:48:45;;;;;;;37.88;17.75;;;12.40;99.90;;;;;;5115215;28;20039;-71
2023/05/12 03:51:11;;;;;;;34.45;18.13;;;12.40;99.90;;;;;;5115155;28;20042;-75
2023/05/12 03:53:41;;;;;;;36.78;18.90;;;12.40;99.90;;;;;;5115219;28;20039;-71
2023/05/12 03:56:07;;;;;;;35.30;17.67;;;12.40;99.90;;;;;;5115128;27;20383;-72
2023/05/12 03:58:32;;;;;;;36.27;16.80;;;12.40;99.90;;;;;;5114806;28;20032;-72
2023/05/12 04:01:00;;;;;;;42.90;17.60;;;12.40;99.90;;;;;;5114752;28;20039;-71
2023/05/12 04:03:28;;;;;;;33.97;17.73;;;12.40;99.90;;;;;;5113624;28;20039;-71
2023/05/12 04:05:59;;;;;;;39.88;18.02;;;12.50;99.90;;;;;;5115354;28;20089;-71
2023/05/12 04:08:24;;;;;;;39.83;18.40;;;12.40;99.90;;;;;;5114943;28;20391;-72
2023/05/12 04:10:53;;;;;;;31.27;16.23;;;12.50;99.90;;;;;;5114805;28;20173;-71
2023/05/12 04:13:18;;;;;;;35.30;17.83;;;12.50;99.90;;;;;;5113778;28;20035;-71
2023/05/12 04:15:44;;;;;;;38.50;18.30;;;12.50;99.90;;;;;;5114768;28;20035;-72
2023/05/12 04:18:10;;;;;;;34.55;17.55;;;12.50;99.90;;;;;;5114676;28;20043;-71
2023/05/12 04:20:36;;;;;;;35.80;18.57;;;12.50;99.90;;;;;;5114710;28;20035;-72
2023/05/12 04:23:01;;;;;;;31.75;16.60;;;12.50;99.90;;;;;;5114826;28;20042;-72
2023/05/12 04:25:27;;;;;;;24.65;13.43;;;12.70;99.90;;;;;;5114599;28;20048;-70
2023/05/12 04:27:52;;;;;;;30.95;16.55;;;12.60;99.90;;;;;;5114616;28;20054;-74
2023/05/12 04:30:18;;;;;;;34.30;15.33;;;12.60;99.90;;;;;;5114273;28;20036;-71
2023/05/12 04:32:43;;;;;;;36.97;17.38;;;12.60;99.90;;;;;;5114408;28;20085;-71
2023/05/12 04:35:09;;;;;;;40.95;18.30;;;12.60;99.90;;;;;;5114519;28;20126;-74
2023/05/12 04:37:35;;;;;;;37.08;17.50;;;12.60;99.90;;;;;;5114436;28;20096;-73
2023/05/12 04:40:00;;;;;;;30.30;15.80;;;12.50;99.90;;;;;;5114379;28;20371;-72
2023/05/12 04:42:26;;;;;;;32.95;16.08;;;13.10;99.90;;;;;;5114302;28;20032;-70
2023/05/12 04:44:51;;;;;;;29.70;15.10;;;12.60;99.90;;;;;;5114347;28;20036;-71
2023/05/12 04:47:17;;;;;;;29.33;16.75;;;12.70;99.90;;;;;;5114198;28;20039;-74
2023/05/12 04:49:43;;;;;;;32.10;16.08;;;12.70;99.90;;;;;;5112922;28;20104;-72
2023/05/12 04:52:08;;;;;;;30.17;15.10;;;12.70;99.90;;;;;;5112927;28;20063;-72
2023/05/12 04:54:34;;;;;;;31.80;16.13;;;12.70;99.90;;;;;;5114032;28;20188;-73
2023/05/12 04:56:59;;;;;;;28.52;15.60;;;12.80;99.90;;;;;;5114151;28;20483;-72
2023/05/12 04:59:25;;;;;;;32.97;15.43;;;12.70;99.90;;;;;;5113680;28;20040;-73
2023/05/12 05:01:51;;;;;;;34.00;16.63;;;12.70;99.90;;;;;;5113805;28;20498;-72
2023/05/12 05:04:16;;;;;;;31.83;16.35;;;12.80;99.90;;;;;;5114160;28;20137;-72
2023/05/12 05:06:42;;;;;;;30.13;14.98;;;12.70;99.90;;;;;;5114067;28;20146;-71
2023/05/12 05:09:07;;;;;;;31.10;15.50;;;12.80;99.90;;;;;;5113690;28;20441;-73
2023/05/12 05:11:33;;;;;;;31.98;15.95;;;12.70;99.90;;;;;;5113869;28;20043;-74
2023/05/12 05:13:59;;;;;;;32.00;15.73;;;12.70;99.90;;;;;;5113844;28;20483;-76
2023/05/12 05:16:24;;;;;;;30.55;16.30;;;12.70;99.90;;;;;;5112826;28;20075;-72
2023/05/12 05:18:50;;;;;;;33.80;15.50;;;12.80;99.90;;;;;;5113620;28;20065;-72
2023/05/12 05:21:16;;;;;;;28.17;15.65;;;12.80;99.90;;;;;;5113064;28;20047;-72
2023/05/12 05:23:42;;;;;;;33.80;16.48;;;12.80;99.90;;;;;;5113847;28;20038;-73
2023/05/12 05:26:08;;;;;;;36.85;16.15;;;12.80;99.90;;;;;;5114138;28;20046;-75
2023/05/12 05:28:34;;;;;;;29.17;15.27;;;12.80;99.90;;;;;;5113717;28;20035;-75
2023/05/12 05:31:00;;;;;;;30.13;15.82;;;12.80;99.90;;;;;;5113543;28;20080;-75
2023/05/12 05:33:25;;;;;;;30.02;16.20;;;12.80;99.90;;;;;;5113668;28;20136;-74
2023/05/12 05:35:51;;;;;;;35.57;15.40;;;13.00;99.90;;;;;;5113662;28;20102;-74
2023/05/12 05:38:17;;;;;;;32.17;14.85;;;13.10;99.90;;;;;;5112515;28;20071;-72
2023/05/12 05:40:42;;;;;;;35.03;15.67;;;12.80;99.90;;;;;;5113351;28;20039;-73
2023/05/12 05:43:08;;;;;;;31.37;16.33;;;12.80;99.90;;;;;;5113932;28;20035;-71
2023/05/12 05:45:34;;;;;;;30.88;16.00;;;12.90;99.90;;;;;;5113456;28;20044;-74
2023/05/12 05:48:00;;;;;;;29.55;15.30;;;12.90;99.90;;;;;;5113632;28;20416;-73
2023/05/12 05:50:26;;;;;;;33.63;15.57;;;12.90;99.90;;;;;;5112896;28;20032;-74
2023/05/12 05:52:53;;;;;;;32.00;16.35;;;13.00;99.90;;;;;;5113539;28;20039;-73
2023/05/12 05:55:20;;;;;;;35.55;15.90;;;13.10;99.90;;;;;;5115476;28;20051;-77
2023/05/12 05:57:46;;;;;;;31.98;16.35;;;13.00;99.90;;;;;;5117587;28;20406;-74
2023/05/12 06:00:13;;;;;;;33.42;16.45;;;12.90;99.90;;;;;;5116873;28;20057;-74
2023/05/12 06:02:39;;;;;;;;;;;13.00;99.90;;;;;;5117408;28;20123;-71
2023/05/12 06:05:05;;;;;;;30.80;16.95;;;13.00;99.90;;;;;;5116949;28;20026;-74
2023/05/12 06:07:31;;;;;;;26.67;15.57;;;13.10;99.90;;;;;;5116915;28;20474;-73
2023/05/12 06:09:57;;;;;;;29.52;14.82;;;13.10;99.90;;;;;;5116935;28;20035;-73
2023/05/12 06:12:23;;;;;;;29.40;14.80;;;13.20;99.90;;;;;;5116575;28;20114;-73
2023/05/12 06:14:48;;;;;;;31.40;16.17;;;13.80;99.90;;;;;;5116233;28;20461;-73
2023/05/12 06:17:14;;;;;;;27.73;15.30;;;13.30;99.90;;;;;;5116619;28;20092;-73
2023/05/12 06:19:39;;;;;;;27.92;15.80;;;13.30;99.90;;;;;;5117783;28;20376;-73
2023/05/12 06:22:05;;;;;;;26.60;14.07;;;13.40;99.90;;;;;;5116736;28;20043;-74
2023/05/12 06:24:30;;;;;;;30.25;15.23;;;13.40;99.90;;;;;;5116769;28;20039;-73
2023/05/12 06:26:56;;;;;;;27.15;15.30;;;13.40;99.90;;;;;;5116859;28;20076;-73
2023/05/12 06:29:22;;;;;;;25.63;15.63;;;13.50;99.90;;;;;;5116740;28;20031;-72
2023/05/12 06:31:47;;;;;;;26.43;14.83;;;13.50;99.90;;;;;;5116374;28;20036;-73
2023/05/12 06:34:13;;;;;;;28.13;14.68;;;13.60;99.90;;;;;;5116771;28;20046;-72
2023/05/12 06:36:38;;;;;;;27.77;14.00;;;13.60;99.90;;;;;;5116686;28;20043;-85
2023/05/12 06:39:04;;;;;;;25.43;14.80;;;13.70;99.90;;;;;;5115501;28;20043;-73
2023/05/12 06:41:30;;;;;;;27.27;16.03;;;13.70;99.90;;;;;;5116270;28;20414;-72
2023/05/12 06:43:56;;;;;;;26.85;15.27;;;13.70;99.90;;;;;;5116511;28;20051;-83
2023/05/12 06:46:22;;;;;;;31.10;15.93;;;13.80;99.90;;;;;;5098527;28;20040;-75
2023/05/12 06:48:47;;;;;;;28.58;14.50;;;13.70;99.90;;;;;;5116360;28;20371;-73
2023/05/12 06:51:13;;;;;;;25.17;15.00;;;13.80;99.90;;;;;;5116002;28;20043;-73
2023/05/12 06:53:42;;;;;;;23.50;14.17;;;13.80;99.90;;;;;;5116359;28;20071;-73
2023/05/12 06:56:08;;;;;;;27.95;15.80;;;13.80;99.90;;;;;;5116084;28;20047;-73
2023/05/12 06:58:33;;;;;;;28.27;15.83;;;13.90;99.90;;;;;;5116298;28;20051;-73
2023/05/12 07:00:59;;;;;;;25.50;15.35;;;14.00;99.90;;;;;;5115895;28;20040;-73
2023/05/12 07:03:25;;;;;;;24.57;13.53;;;14.00;99.90;;;;;;5115906;28;20040;-73
2023/05/12 07:05:50;;;;;;;24.38;14.43;;;14.10;99.90;;;;;;5114354;28;20348;-74
2023/05/12 07:08:16;;;;;;;23.87;15.30;;;14.20;99.90;;;;;;5115675;28;20047;-73
2023/05/12 07:10:42;;;;;;;26.40;15.70;;;14.20;99.90;;;;;;5115631;28;20043;-74
2023/05/12 07:13:08;;;;;;;26.67;15.83;;;14.30;99.90;;;;;;5115736;28;20046;-73
2023/05/12 07:15:33;;;;;;;22.50;14.35;;;14.40;99.90;;;;;;5115958;28;20081;-76
2023/05/12 07:17:59;;;;;;;25.30;14.97;;;14.50;99.90;;;;;;5114561;28;20028;-74
2023/05/12 07:20:25;;;;;;;21.97;13.83;;;14.40;99.90;;;;;;5115632;28;20105;-76
2023/05/12 07:22:53;;;;;;;23.70;14.02;;;14.40;99.90;;;;;;5115650;28;20069;-74
2023/05/12 07:25:19;;;;;;;23.33;15.02;;;14.40;99.90;;;;;;5115551;28;20468;-72
2023/05/12 07:27:44;;;;;;;24.57;14.43;;;14.40;99.90;;;;;;5113998;28;20042;-71
2023/05/12 07:30:10;;;;;;;25.60;14.43;;;14.50;99.90;;;;;;5114156;28;20032;-72
2023/05/12 07:32:36;;;;;;;23.85;15.07;;;14.50;99.90;;;;;;5115003;28;20046;-72
2023/05/12 07:35:02;;;;;;;24.27;14.63;;;14.50;99.90;;;;;;5115219;28;20122;-72
2023/05/12 07:37:28;;;;;;;21.93;13.90;;;14.60;99.90;;;;;;5115300;28;20050;-77
2023/05/12 07:39:54;;;;;;;24.13;14.93;;;14.60;99.90;;;;;;5113038;28;20035;-79
2023/05/12 07:42:21;;;;;;;25.67;14.13;;;14.60;99.90;;;;;;5113937;28;20047;-75
2023/05/12 07:44:47;;;;;;;22.23;14.25;;;14.50;99.90;;;;;;5114775;28;20044;-74
2023/05/12 07:47:13;;;;;;;24.88;15.57;;;14.50;99.90;;;;;;5115015;28;20073;-77
2023/05/12 07:49:39;;;;;;;23.83;15.03;;;14.40;99.90;;;;;;5114874;28;20058;-73
2023/05/12 07:52:05;;;;;;;21.95;14.68;;;14.50;99.90;;;;;;5114596;28;20036;-72
2023/05/12 07:54:31;;;;;;;23.27;14.98;;;14.60;99.90;;;;;;5113661;28;20049;-71
2023/05/12 07:56:57;;;;;;;24.63;15.53;;;14.60;99.90;;;;;;5114588;28;20145;-71
2023/05/12 07:59:22;;;;;;;20.33;14.00;;;14.70;99.90;;;;;;5114652;28;20066;-72
2023/05/12 08:01:48;;;;;;;23.70;14.27;;;14.70;99.90;;;;;;5114116;28;20475;-72
2023/05/12 08:04:14;;;;;;;21.17;14.52;;;14.80;99.90;;;;;;5114220;28;20058;-75
2023/05/12 08:06:39;;;;;;;25.47;15.53;;;14.90;99.90;;;;;;5114675;28;20126;-75
2023/05/12 08:09:05;;;;;;;25.30;14.77;;;15.00;99.90;;;;;;5114611;28;20094;-75
2023/05/12 08:11:30;;;;;;;21.00;13.40;;;15.00;99.90;;;;;;5114119;28;20043;-76
2023/05/12 08:13:56;;;;;;;22.70;14.67;;;15.10;99.90;;;;;;5114623;28;20035;-76
2023/05/12 08:16:22;;;;;;;20.27;13.10;;;15.20;99.90;;;;;;5114372;28;20064;-75
2023/05/12 08:18:47;;;;;;;19.55;13.55;;;15.30;99.90;;;;;;5114582;28;20463;-80
2023/05/12 08:21:13;;;;;;;20.80;12.98;;;15.50;99.90;;;;;;5114449;28;20035;-74
2023/05/12 08:23:39;;;;;;;20.75;14.02;;;15.50;99.90;;;;;;5113603;28;20043;-75
2023/05/12 08:26:04;;;;;;;23.50;14.60;;;15.50;99.90;;;;;;5114308;28;20518;-76
2023/05/12 08:28:30;;;;;;;19.60;12.90;;;15.70;99.90;;;;;;5114254;28;20495;-75
2023/05/12 08:30:57;;;;;;;22.47;13.33;;;15.80;99.90;;;;;;5113674;28;20079;-74
2023/05/12 08:33:23;;;;;;;17.98;13.25;;;16.00;99.90;;;;;;5114053;28;20040;-74
2023/05/12 08:35:49;;;;;;;20.58;13.07;;;16.20;99.90;;;;;;5114122;28;20042;-73
2023/05/12 08:38:15;;;;;;;18.23;12.88;;;16.30;99.90;;;;;;5114286;28;20062;-74
2023/05/12 08:40:55;;;;;;;17.87;12.57;;;16.40;99.90;;;;;;5112840;28;20035;-74
2023/05/12 08:43:30;;;;;;;17.63;12.57;;;16.50;99.90;;;;;;5113838;28;20494;-73
2023/05/12 08:45:57;;;;;;;16.33;11.60;;;16.60;99.90;;;;;;5114228;28;20459;-78
2023/05/12 08:48:26;;;;;;;16.98;10.68;;;16.80;99.90;;;;;;5114141;28;20039;-78
2023/05/12 08:50:53;;;;;;;16.10;11.15;;;17.00;99.90;;;;;;5113806;28;20050;-76
2023/05/12 08:53:23;;;;;;;14.57;10.88;;;17.10;99.90;;;;;;5112749;28;20040;-78
2023/05/12 08:55:50;;;;;;;16.02;11.63;;;17.30;99.90;;;;;;5113564;28;20040;-77
2023/05/12 08:58:16;;;;;;;16.10;11.48;;;17.40;99.90;;;;;;5112396;28;20047;-78
2023/05/12 09:00:43;;;;;;;14.50;10.65;;;17.50;99.90;;;;;;5113632;28;20425;-77
2023/05/12 09:03:13;;;;;;;15.48;10.65;;;17.60;99.90;;;;;;5113778;28;20050;-76
2023/05/12 09:05:39;;;;;;;15.52;11.63;;;17.40;99.90;;;;;;5112463;28;20455;-73
2023/05/12 09:08:08;;;;;;;13.95;10.18;;;17.50;99.90;;;;;;5114024;28;20086;-73
2023/05/12 09:10:34;;;;;;;12.88;9.85;;;17.40;99.90;;;;;;5113296;28;20119;-76
2023/05/12 09:13:19;;;;;;;13.38;9.63;;;17.40;99.90;;;;;;5113558;28;20122;-74
2023/05/12 09:15:47;;;;;;;18.65;11.60;;;17.60;99.90;;;;;;5113787;28;20042;-76
2023/05/12 09:18:13;;;;;;;11.82;9.55;;;17.60;99.90;;;;;;5113954;28;20050;-73
2023/05/12 09:20:38;;;;;;;14.83;11.20;;;17.70;99.90;;;;;;5113364;28;20043;-72
2023/05/12 09:23:21;;;;;;;13.97;10.20;;;17.90;99.90;;;;;;5113582;28;20486;-72
2023/05/12 09:25:59;;;;;;;15.57;11.13;;;17.90;99.90;;;;;;5113559;28;20054;-72
2023/05/12 09:28:34;;;;;;;16.02;11.45;;;18.00;99.90;;;;;;5114354;28;20074;-72
2023/05/12 09:31:00;;;;;;;15.07;10.55;;;18.20;99.90;;;;;;5116630;28;20031;-73
2023/05/12 09:33:26;;;;;;;13.57;10.57;;;18.50;99.90;;;;;;5117566;28;20145;-72
2023/05/12 09:35:52;;;;;;;12.97;9.47;;;18.60;99.90;;;;;;5117606;28;20100;-72
2023/05/12 09:38:17;;;;;;;13.87;10.23;;;18.80;99.90;;;;;;5116528;28;20047;-72
2023/05/12 09:40:44;;;;;;;13.27;10.53;;;18.70;99.90;;;;;;5117234;28;20601;-72
2023/05/12 09:43:10;;;;;;;12.48;9.90;;;18.70;99.90;;;;;;5117367;27;20035;-72
2023/05/12 09:45:37;;;;;;;11.38;8.90;;;18.80;99.90;;;;;;5116196;28;20036;-72
2023/05/12 09:48:10;;;;;;;11.52;8.43;;;18.80;99.90;;;;;;5117548;28;20478;-73
2023/05/12 09:50:47;;;;;;;12.10;9.10;;;18.70;99.90;;;;;;5116815;28;20048;-72
2023/05/12 09:53:13;;;;;;;12.33;9.67;;;18.70;99.90;;;;;;5117134;27;20036;-73
2023/05/12 09:55:41;;;;;;;13.70;10.00;;;18.70;99.90;;;;;;5117062;28;20278;-72
2023/05/12 09:58:09;;;;;;;11.18;8.02;;;18.90;99.90;;;;;;5116740;27;20050;-72
2023/05/12 10:00:37;;;;;;;11.40;8.13;;;18.90;99.90;;;;;;5116918;27;20443;-72
2023/05/12 10:03:09;;;;;;;10.77;8.45;;;19.10;99.90;;;;;;5116602;28;20092;-72
2023/05/12 10:05:38;;;;;;;9.05;7.20;;;19.30;99.90;;;;;;5117097;28;20048;-72
2023/05/12 10:08:05;;;;;;;10.43;7.20;;;19.40;99.90;;;;;;5117244;28;20051;-72
2023/05/12 10:10:32;;;;;;;6.95;5.97;;;19.50;99.90;;;;;;5117228;28;20046;-72
2023/05/12 10:12:59;;;;;;;7.53;6.05;;;19.60;99.90;;;;;;5117183;28;20044;-72
2023/05/12 10:15:26;;;;;;;9.40;6.55;;;19.80;99.90;;;;;;5117021;28;20047;-72
2023/05/12 10:17:54;;;;;;;10.40;6.70;;;20.00;99.90;;;;;;5117084;28;20036;-73
2023/05/12 10:20:20;;;;;;;9.23;6.72;;;20.20;99.90;;;;;;5117028;28;20119;-72
2023/05/12 10:22:48;;;;;;;8.83;7.07;;;20.30;99.90;;;;;;5117104;28;20122;-72
2023/05/12 10:25:15;;;;;;;9.13;7.38;;;20.40;99.90;;;;;;5116899;28;20325;-72
2023/05/12 10:27:41;;;;;;;11.30;8.55;;;20.50;99.90;;;;;;5115351;28;20442;-72
2023/05/12 10:30:07;;;;;;;10.67;7.17;;;20.70;99.90;;;;;;5116695;28;20084;-77
2023/05/12 10:32:33;;;;;;;6.97;5.78;;;20.80;99.90;;;;;;5120722;28;20082;-73
2023/05/12 10:35:12;;;;;;;7.17;5.83;;;20.80;99.90;;;;;;5121923;28;20035;-73
2023/05/12 10:37:38;;;;;;;6.90;4.00;;;20.80;99.90;;;;;;5121913;27;20046;-71
2023/05/12 10:40:05;;;;;;;7.07;5.68;;;20.70;99.90;;;;;;5117106;28;20071;-73
2023/05/12 10:42:41;;;;;;;;;;;20.80;99.90;;;;;;5116917;28;20044;-72
2023/05/12 10:45:17;;;;;;;7.22;5.82;;;20.90;99.90;;;;;;5116448;28;19916;-73
2023/05/12 10:47:45;;;;;;;8.10;6.97;;;20.80;99.90;;;;;;5116516;28;20036;-73
2023/05/12 10:50:13;;;;;;;7.90;6.45;;;20.80;99.90;;;;;;5116235;28;20031;-73
2023/05/12 10:52:51;;;;;;;7.07;5.53;;;20.80;99.90;;;;;;5115196;28;20119;-73
2023/05/12 10:55:17;;;;;;;7.05;5.35;;;20.90;99.90;;;;;;5116357;28;20039;-74
2023/05/12 10:57:49;;;;;;;5.87;4.80;;;21.10;99.90;;;;;;5116268;28;20124;-73
2023/05/12 11:00:15;;;;;;;9.32;6.10;;;21.10;99.90;;;;;;5116289;28;20043;-74
2023/05/12 11:02:49;;;;;;;8.47;6.77;;;21.10;99.90;;;;;;5116226;28;20089;-75
2023/05/12 11:05:15;;;;;;;8.30;6.65;;;21.00;99.90;;;;;;5114545;28;20372;-73
2023/05/12 11:07:48;;;;;;;8.52;7.25;;;21.00;99.90;;;;;;5116085;28;20126;-73
2023/05/12 11:10:14;;;;;;;10.43;7.80;;;21.10;99.90;;;;;;5116086;28;20048;-73
2023/05/12 11:12:42;;;;;;;9.47;7.57;;;21.20;99.90;;;;;;5115967;28;20077;-80
2023/05/12 11:15:08;;;;;;;9.10;7.70;;;21.30;99.90;;;;;;5115948;28;20044;-77
2023/05/12 11:17:38;;;;;;;8.13;6.77;;;21.40;99.90;;;;;;5115981;28;20135;-75
2023/05/12 11:20:05;;;;;;;11.05;8.05;;;21.60;99.90;;;;;;5115924;28;20043;-74
2023/05/12 11:22:32;;;;;;;8.43;7.53;;;21.60;99.90;;;;;;5115670;28;20036;-74
2023/05/12 11:25:07;;;;;;;9.65;7.35;;;21.50;99.90;;;;;;5115780;28;20122;-74
2023/05/12 11:27:33;;;;;;;10.20;8.73;;;21.60;99.90;;;;;;5116136;28;20104;-74
2023/05/12 11:30:01;;;;;;;8.63;7.73;;;21.70;99.90;;;;;;5115721;28;20483;-74
2023/05/12 11:32:28;;;;;;;10.57;8.25;;;21.90;99.90;;;;;;5115555;28;20050;-74
2023/05/12 11:34:54;;;;;;;;;;;22.00;99.90;;;;;;5114793;28;20040;-74
2023/05/12 11:37:19;;;;;;;8.88;5.70;;;22.10;99.90;;;;;;5115508;28;19916;-74
2023/05/12 11:39:45;;;;;;;8.43;6.43;;;22.20;99.90;;;;;;5115490;28;20091;-74
2023/05/12 11:42:11;;;;;;;12.67;5.90;;;22.30;99.90;;;;;;5114280;28;20027;-74
2023/05/12 11:44:48;;;;;;;8.20;5.70;;;22.40;99.90;;;;;;5114262;28;20036;-74
2023/05/12 11:47:15;;;;;;;10.15;7.75;;;22.50;99.90;;;;;;5113851;28;20484;-74
2023/05/12 11:49:48;;;;;;;;;;;22.60;99.90;;;;;;5115616;28;20042;-74
2023/05/12 11:52:14;;;;;;;9.70;7.70;;;22.60;99.90;;;;;;5114712;28;20057;-75
2023/05/12 11:54:50;;;;;;;11.75;7.80;;;22.60;99.90;;;;;;5115131;27;20070;-74
2023/05/12 11:57:30;;;;;;;9.38;7.63;;;22.60;99.90;;;;;;5115205;28;20040;-74
2023/05/12 12:00:02;;;;;;;9.77;8.02;;;22.80;99.90;;;;;;5114989;28;20047;-73
2023/05/12 12:02:27;;;;;;;9.45;7.05;;;22.80;99.90;;;;;;5115536;28;20042;-73
2023/05/12 12:04:53;;;;;;;10.83;5.30;;;22.90;99.90;;;;;;5115032;28;20051;-74
2023/05/12 12:07:30;;;;;;;5.90;5.30;;;22.90;99.90;;;;;;5114942;28;20101;-74
2023/05/12 12:09:55;;;;;;;7.50;5.03;;;22.80;99.90;;;;;;5114961;28;20047;-74
2023/05/12 12:12:21;;;;;;;8.47;4.87;;;23.00;99.90;;;;;;5114735;27;20047;-76
2023/05/12 12:14:47;;;;;;;5.97;4.00;;;23.00;99.90;;;;;;5114749;28;20039;-74
2023/05/12 12:17:12;;;;;;;13.97;5.00;;;23.10;99.90;;;;;;5114784;28;20126;-73
2023/05/12 12:19:38;;;;;;;6.73;4.27;;;23.10;99.90;;;;;;5114738;28;20459;-77
2023/05/12 12:22:04;;;;;;;5.70;3.93;;;23.10;99.90;;;;;;5114688;28;20043;-74
2023/05/12 12:24:29;;;;;;;7.40;3.90;;;23.10;99.90;;;;;;5114683;28;20093;-74
2023/05/12 12:26:55;;;;;;;5.53;3.63;;;23.20;99.90;;;;;;5114628;28;20054;-74
2023/05/12 12:29:22;;;;;;;4.40;3.70;;;23.30;99.90;;;;;;5114296;28;20043;-74
2023/05/12 12:31:48;;;;;;;4.65;3.97;;;23.40;99.90;;;;;;5112771;28;20491;-74